Time;durP1;ratioP1;P1;durP2;ratioP2;P2;SDS_P1;SDS_P2;PMS_P1;PMS_P2;Temp;Humidity;BMP_temperature;BMP_pressure;BME280_temperature;BME280_humidity;BME280_pressure;Samples;Min_cycle;Max_cycle;Signal;HPM_P1;HPM_P2
2022/07/18 00:04:35;;;;;;;6.30;3.40;;;;;;;11.15;69.45;99613.60;220041;1276;23801;-69
2022/07/18 00:09:39;;;;;;;5.80;3.30;;;;;;;11.12;69.48;99609.96;220140;1276;25714;-69
2022/07/18 00:14:44;;;;;;;5.60;3.10;;;;;;;11.11;69.68;99604.60;220129;1277;23696;-69
2022/07/18 00:20:10;;;;;;;6.40;3.50;;;;;;;11.10;69.37;99609.73;220163;1276;25271;-68
2022/07/18 00:25:12;;;;;;;3.90;2.90;;;;;;;11.10;69.34;99604.71;220249;1277;24167;-69
2022/07/18 00:30:15;;;;;;;4.60;3.10;;;;;;;11.06;69.32;99604.89;220222;1276;23804;-69
2022/07/18 00:35:17;;;;;;;5.10;3.10;;;;;;;11.02;69.45;99606.02;220175;1276;25358;-69
2022/07/18 00:40:19;;;;;;;4.70;2.80;;;;;;;10.99;69.61;99604.46;219868;1278;25341;-68
2022/07/18 00:45:22;;;;;;;4.90;2.80;;;;;;;10.96;69.91;99603.94;219970;1278;26388;-69
2022/07/18 00:50:31;;;;;;;5.20;3.80;;;;;;;10.95;70.24;99606.98;219775;1279;23390;-68
2022/07/18 00:55:38;;;;;;;4.70;3.20;;;;;;;10.92;70.51;99601.19;219529;1278;419696;-69
2022/07/18 01:06:03;;;;;;;6.70;3.80;;;;;;;10.88;70.63;99607.91;220011;1277;24007;-68
2022/07/18 01:11:10;;;;;;;7.60;4.00;;;;;;;10.88;70.65;99603.08;220117;1276;22553;-69
2022/07/18 01:16:16;;;;;;;6.40;4.10;;;;;;;10.87;70.84;99608.61;220126;1276;22591;-68
2022/07/18 01:21:19;;;;;;;6.10;3.60;;;;;;;10.85;70.80;99607.48;220291;1277;25569;-68
2022/07/18 01:26:22;;;;;;;9.40;4.20;;;;;;;10.82;71.13;99599.92;220168;1276;22575;-67
2022/07/18 01:31:25;;;;;;;8.20;4.60;;;;;;;10.78;71.23;99598.85;219984;1276;24318;-69
2022/07/18 01:36:30;;;;;;;7.10;4.80;;;;;;;10.72;71.36;99597.09;220146;1278;24237;-70
2022/07/18 01:41:34;;;;;;;7.10;4.70;;;;;;;10.66;71.64;99600.41;220153;1277;22713;-69
2022/07/18 01:46:36;;;;;;;8.50;4.40;;;;;;;10.60;71.94;99604.06;220271;1278;24583;-69
2022/07/18 01:51:39;;;;;;;8.40;4.40;;;;;;;10.55;72.04;99602.08;220260;1278;23344;-68
2022/07/18 01:56:44;;;;;;;6.70;4.10;;;;;;;10.49;72.18;99598.07;220180;1276;22579;-70
2022/07/18 02:01:49;;;;;;;8.50;5.20;;;;;;;10.40;72.34;99594.25;220228;1277;22559;-71
2022/07/18 02:06:52;;;;;;;8.50;4.40;;;;;;;10.34;72.66;99598.14;220177;1277;24292;-70
2022/07/18 02:11:56;;;;;;;7.70;4.10;;;;;;;10.27;72.77;99604.00;220075;1277;22501;-68
2022/07/18 02:16:58;;;;;;;5.40;3.90;;;;;;;10.23;73.06;99605.59;220316;1276;22579;-69
2022/07/18 02:22:01;;;;;;;8.80;3.60;;;;;;;10.18;73.19;99602.02;220287;1278;22539;-68
2022/07/18 02:27:04;;;;;;;6.70;3.60;;;;;;;10.13;73.16;99600.61;220189;1277;22615;-68
2022/07/18 02:32:06;;;;;;;5.40;3.60;;;;;;;10.08;73.30;99599.20;220295;1278;22570;-68
2022/07/18 02:37:11;;;;;;;5.90;3.90;;;;;;;10.05;73.44;99605.56;220016;1278;22549;-69
2022/07/18 02:42:14;;;;;;;5.40;4.00;;;;;;;10.01;73.55;99603.95;220345;1278;22561;-68
2022/07/18 02:47:21;;;;;;;6.70;4.40;;;;;;;9.96;73.61;99602.17;220300;1278;22537;-68
2022/07/18 02:52:24;;;;;;;4.40;3.50;;;;;;;9.89;73.83;99602.48;220170;1278;22583;-69
2022/07/18 02:57:27;;;;;;;5.80;3.70;;;;;;;9.86;74.05;99602.89;220227;1279;22576;-68
2022/07/18 03:02:29;;;;;;;7.30;3.90;;;;;;;9.84;74.53;99607.60;220476;1277;23114;-68
2022/07/18 03:07:33;;;;;;;5.70;3.70;;;;;;;9.83;74.76;99608.45;219989;1278;22600;-69
2022/07/18 03:12:35;;;;;;;6.30;4.20;;;;;;;9.81;74.85;99604.52;220291;1278;22583;-67
2022/07/18 03:17:38;;;;;;;7.10;3.90;;;;;;;9.82;75.01;99606.83;220200;1278;25210;-68
2022/07/18 03:22:40;;;;;;;9.20;7.90;;;;;;;9.87;75.10;99606.17;220167;1277;24280;-68
2022/07/18 03:27:43;;;;;;;8.10;4.10;;;;;;;9.96;75.19;99607.90;220130;1278;24311;-68
2022/07/18 03:32:45;;;;;;;6.50;4.00;;;;;;;10.11;74.88;99609.92;220134;1278;22703;-70
2022/07/18 03:37:47;;;;;;;6.20;4.90;;;;;;;10.34;75.03;99614.95;220072;1278;22744;-69
2022/07/18 03:43:03;;;;;;;8.80;4.80;;;;;;;10.65;74.73;99621.69;220129;1278;24244;-68
2022/07/18 03:48:25;;;;;;;8.40;6.70;;;;;;;10.93;74.40;99624.84;220159;1278;25402;-69
2022/07/18 03:53:28;;;;;;;7.90;5.10;;;;;;;11.17;74.08;99629.31;220130;1277;23044;-69
2022/07/18 03:58:30;;;;;;;6.00;4.10;;;;;;;11.44;73.92;99635.32;220164;1278;22724;-69
2022/07/18 04:03:33;;;;;;;5.90;3.90;;;;;;;11.66;73.02;99643.40;220203;1276;24244;-67
2022/07/18 04:08:39;;;;;;;5.50;4.00;;;;;;;11.75;72.64;99650.40;220298;1278;24257;-68
2022/07/18 04:13:42;;;;;;;5.90;3.60;;;;;;;11.81;72.49;99653.77;220063;1277;24161;-68
2022/07/18 04:18:44;;;;;;;6.90;3.80;;;;;;;11.94;72.24;99657.23;220144;1277;22576;-68
2022/07/18 04:23:47;;;;;;;7.30;4.00;;;;;;;12.04;72.04;99655.25;220045;1277;24340;-68
2022/07/18 04:28:53;;;;;;;6.20;3.60;;;;;;;12.07;71.81;99644.81;220185;1277;22749;-70
2022/07/18 04:33:58;;;;;;;5.00;3.90;;;;;;;12.16;71.63;99653.04;220286;1277;22601;-69
2022/07/18 04:39:01;;;;;;;5.40;3.90;;;;;;;12.26;71.69;99651.27;220167;1276;22543;-68
2022/07/18 04:44:04;;;;;;;7.30;3.70;;;;;;;12.43;71.56;99652.00;220322;1276;24352;-68
2022/07/18 04:49:26;;;;;;;4.90;4.00;;;;;;;12.64;71.52;99640.41;220141;1277;22545;-69
2022/07/18 04:54:29;;;;;;;5.50;3.60;;;;;;;12.84;71.26;99638.20;220144;1278;22560;-68
2022/07/18 04:59:43;;;;;;;5.40;3.50;;;;;;;12.98;70.90;99641.15;220129;1278;22539;-69
2022/07/18 05:04:55;;;;;;;4.40;2.90;;;;;;;13.11;70.86;99633.71;220155;1276;24272;-68
2022/07/18 05:09:57;;;;;;;6.00;3.10;;;;;;;13.25;70.62;99634.33;220141;1278;22558;-67
2022/07/18 05:14:59;;;;;;;4.80;3.10;;;;;;;13.37;70.37;99630.36;220304;1277;24295;-67
2022/07/18 05:20:06;;;;;;;5.90;3.20;;;;;;;13.58;70.18;99630.40;220116;1277;22662;-69
2022/07/18 05:25:12;;;;;;;6.00;3.40;;;;;;;13.85;69.89;99630.67;220210;1278;22534;-68
2022/07/18 05:30:35;;;;;;;5.40;3.20;;;;;;;14.16;69.46;99628.16;220127;1276;22576;-67
2022/07/18 05:35:37;;;;;;;4.80;3.50;;;;;;;14.40;68.88;99631.73;219972;1279;22544;-69
2022/07/18 05:40:50;;;;;;;5.90;3.70;;;;;;;14.54;68.49;99633.09;220261;1276;25079;-69
2022/07/18 05:46:06;;;;;;;5.10;3.30;;;;;;;14.70;68.23;99631.70;219917;1278;23395;-70
2022/07/18 05:51:10;;;;;;;5.50;2.90;;;;;;;14.87;67.92;99637.19;220394;1277;22625;-69
2022/07/18 05:56:12;;;;;;;3.40;2.30;;;;;;;15.06;67.47;99633.58;220525;1276;22543;-66
2022/07/18 06:01:19;;;;;;;6.10;3.10;;;;;;;15.23;67.13;99635.34;220502;1278;25318;-67
2022/07/18 06:06:23;;;;;;;3.00;2.20;;;;;;;15.40;66.62;99641.48;220775;1277;22561;-67
2022/07/18 06:11:26;;;;;;;4.70;2.30;;;;;;;15.57;66.06;99641.74;220557;1276;22578;-67
2022/07/18 06:16:29;;;;;;;2.70;2.20;;;;;;;15.83;66.22;99648.23;220383;1277;22554;-69
2022/07/18 06:21:32;;;;;;;4.30;2.10;;;;;;;16.09;65.70;99656.77;220268;1276;24214;-67
2022/07/18 06:26:35;;;;;;;4.10;2.40;;;;;;;16.34;65.08;99663.36;220332;1276;22866;-67
2022/07/18 06:31:38;;;;;;;5.90;3.20;;;;;;;16.59;64.60;99655.42;220353;1276;22577;-68
2022/07/18 06:36:40;;;;;;;5.50;2.70;;;;;;;16.85;64.12;99653.85;220200;1277;22583;-68
2022/07/18 06:42:06;;;;;;;3.30;2.10;;;;;;;17.10;63.88;99648.48;220274;1276;22593;-71
2022/07/18 06:47:39;;;;;;;5.10;2.10;;;;;;;17.41;63.71;99647.07;220348;1277;22586;-70
2022/07/18 06:52:55;;;;;;;2.30;1.90;;;;;;;17.72;62.91;99645.92;220332;1276;24214;-71
2022/07/18 06:57:57;;;;;;;3.10;1.70;;;;;;;17.97;62.14;99634.85;220157;1276;23368;-71
2022/07/18 07:03:05;;;;;;;3.30;1.60;;;;;;;18.22;60.55;99634.67;220047;1276;25450;-69
2022/07/18 07:08:08;;;;;;;2.60;1.70;;;;;;;18.45;59.16;99631.81;220137;1276;22892;-69
2022/07/18 07:13:23;;;;;;;4.60;1.60;;;;;;;18.70;58.53;99636.54;220036;1277;22573;-69
2022/07/18 07:18:49;;;;;;;3.20;1.40;;;;;;;18.96;57.14;99634.52;220524;1277;22767;-70
2022/07/18 07:23:52;;;;;;;3.60;1.10;;;;;;;19.18;56.25;99628.35;219960;1276;22712;-69
2022/07/18 07:29:08;;;;;;;1.70;1.10;;;;;;;19.43;55.74;99633.09;220138;1277;22666;-70
2022/07/18 07:34:17;;;;;;;3.30;1.30;;;;;;;19.71;54.93;99633.86;220336;1276;23123;-69
2022/07/18 07:39:29;;;;;;;3.70;2.30;;;;;;;19.93;54.34;99632.27;220377;1276;25419;-69
2022/07/18 07:44:31;;;;;;;4.50;2.80;;;;;;;20.19;53.00;99634.95;220348;1276;23037;-70
2022/07/18 07:49:50;;;;;;;6.10;2.00;;;;;;;20.44;52.26;99633.97;220355;1276;23039;-70
2022/07/18 07:55:04;;;;;;;2.90;1.90;;;;;;;20.71;51.47;99624.32;220295;1276;23799;-71
2022/07/18 08:00:29;;;;;;;4.70;1.70;;;;;;;20.96;50.22;99619.96;220237;1276;22705;-70
2022/07/18 08:05:37;;;;;;;2.70;1.30;;;;;;;21.16;48.68;99625.13;220125;1276;22549;-70
2022/07/18 08:10:40;;;;;;;2.00;1.00;;;;;;;21.51;48.67;99620.80;220000;1276;23014;-70
2022/07/18 08:16:09;;;;;;;1.70;1.10;;;;;;;21.71;47.52;99618.00;219965;1276;23269;-70
2022/07/18 08:21:10;;;;;;;3.80;1.30;;;;;;;21.77;46.89;99620.45;220112;1276;25448;-71
2022/07/18 08:26:13;;;;;;;2.40;1.60;;;;;;;21.72;46.27;99623.41;220082;1277;22881;-72
2022/07/18 08:31:16;;;;;;;2.10;1.30;;;;;;;21.79;46.85;99619.33;220054;1276;25271;-70
2022/07/18 08:36:29;;;;;;;1.70;1.40;;;;;;;21.99;46.22;99618.23;220078;1276;26396;-71
2022/07/18 08:41:47;;;;;;;3.50;1.40;;;;;;;22.03;45.52;99620.48;220225;1277;25319;-71
2022/07/18 08:47:00;;;;;;;2.00;1.40;;;;;;;22.19;45.64;99617.87;220433;1276;23919;-70
2022/07/18 08:52:05;;;;;;;2.90;1.20;;;;;;;22.42;45.28;99620.27;220153;1276;23805;-71
2022/07/18 08:57:07;;;;;;;4.30;3.40;;;;;;;22.52;44.36;99624.27;220132;1276;24656;-70
2022/07/18 09:02:11;;;;;;;1.70;1.20;;;;;;;22.63;44.65;99619.74;220077;1276;22588;-70
2022/07/18 09:07:24;;;;;;;3.00;1.50;;;;;;;22.85;44.42;99613.91;219999;1276;22602;-71
2022/07/18 09:12:30;;;;;;;1.40;1.20;;;;;;;22.89;43.74;99611.38;220190;1276;22549;-70
2022/07/18 09:17:57;;;;;;;2.20;1.20;;;;;;;22.92;42.94;99609.58;220207;1276;22562;-71
2022/07/18 09:23:19;;;;;;;2.60;1.10;;;;;;;22.99;43.10;99609.27;220183;1276;23359;-73
2022/07/18 09:28:21;;;;;;;2.30;1.30;;;;;;;23.15;43.19;99600.18;220107;1276;22681;-71
2022/07/18 09:33:24;;;;;;;3.10;1.50;;;;;;;23.20;42.55;99603.58;220223;1276;22651;-70
2022/07/18 09:38:29;;;;;;;3.00;1.10;;;;;;;23.21;42.17;99599.08;220136;1276;22671;-71
2022/07/18 09:43:37;;;;;;;2.20;1.10;;;;;;;23.27;42.13;99604.21;220246;1276;25405;-71
2022/07/18 09:48:40;;;;;;;1.80;0.90;;;;;;;23.39;41.42;99604.98;219993;1276;24292;-72
2022/07/18 09:54:03;;;;;;;2.70;1.20;;;;;;;23.50;40.77;99595.94;220244;1277;25419;-70
2022/07/18 09:59:07;;;;;;;2.60;0.90;;;;;;;23.43;40.59;99598.43;220124;1276;22603;-70
2022/07/18 10:04:13;;;;;;;2.20;1.00;;;;;;;23.52;40.50;99594.10;220088;1276;22850;-72
2022/07/18 10:09:30;;;;;;;1.40;1.30;;;;;;;23.66;40.70;99593.63;220298;1276;24240;-71
2022/07/18 10:14:33;;;;;;;2.80;1.40;;;;;;;23.82;40.11;99588.91;220255;1276;22563;-72
2022/07/18 10:19:35;;;;;;;2.00;1.10;;;;;;;23.92;40.36;99587.56;220312;1276;22676;-71
2022/07/18 10:24:42;;;;;;;2.40;1.60;;;;;;;24.14;40.27;99593.67;220402;1277;22565;-71
2022/07/18 10:30:13;;;;;;;1.20;1.00;;;;;;;24.14;39.46;99590.54;220135;1277;22551;-73
2022/07/18 10:35:36;;;;;;;2.10;1.50;;;;;;;24.24;39.88;99582.45;220260;1276;24438;-73
2022/07/18 10:41:09;;;;;;;6.70;5.80;;;;;;;24.46;39.48;99582.23;220062;1276;24261;-72
2022/07/18 10:46:13;;;;;;;2.70;1.30;;;;;;;24.59;39.19;99580.84;220043;1276;24087;-72
2022/07/18 10:51:29;;;;;;;2.90;1.30;;;;;;;24.69;39.30;99577.91;220094;1276;22563;-71
2022/07/18 10:56:38;;;;;;;3.00;1.60;;;;;;;24.81;39.19;99569.42;220497;1276;22723;-73
2022/07/18 11:01:55;;;;;;;1.80;1.40;;;;;;;24.79;38.00;99562.30;220217;1276;25421;-73
2022/07/18 11:07:15;;;;;;;3.20;1.50;;;;;;;24.77;37.68;99562.40;220061;1276;23113;-70
2022/07/18 11:12:20;;;;;;;1.80;1.20;;;;;;;24.97;38.00;99546.76;220313;1276;22552;-73
2022/07/18 11:17:55;;;;;;;1.60;1.30;;;;;;;25.25;38.13;99541.33;220110;1276;22552;-71
2022/07/18 11:23:14;;;;;;;2.30;2.10;;;;;;;25.34;37.00;99536.30;220134;1276;25271;-71
2022/07/18 11:28:18;;;;;;;2.90;2.40;;;;;;;25.40;36.87;99532.40;220051;1276;25259;-72
2022/07/18 11:33:27;;;;;;;2.40;1.60;;;;;;;25.46;36.70;99525.65;220083;1275;22667;-72
2022/07/18 11:38:46;;;;;;;2.10;1.20;;;;;;;25.59;36.92;99524.58;220031;1276;22945;-72
2022/07/18 11:43:55;;;;;;;2.20;1.20;;;;;;;25.81;36.65;99523.69;220021;1276;22705;-74
2022/07/18 11:49:02;;;;;;;2.00;1.40;;;;;;;25.84;36.06;99526.40;220083;1276;23694;-72
2022/07/18 11:54:05;;;;;;;2.20;1.60;;;;;;;25.87;35.91;99524.86;220087;1276;22673;-70
2022/07/18 11:59:07;;;;;;;1.50;1.20;;;;;;;25.92;35.55;99522.17;220217;1276;25481;-73
2022/07/18 12:04:28;;;;;;;1.70;1.30;;;;;;;26.03;35.90;99511.49;220073;1276;22529;-70
2022/07/18 12:09:31;;;;;;;2.00;1.30;;;;;;;26.05;35.55;99508.88;220121;1276;24401;-72
2022/07/18 12:14:33;;;;;;;1.60;1.50;;;;;;;25.99;35.64;99503.45;219827;1276;22743;-72
2022/07/18 12:19:38;;;;;;;2.10;1.20;;;;;;;25.90;35.70;99494.08;220063;1276;23892;-71
2022/07/18 12:24:56;;;;;;;2.30;1.70;;;;;;;25.95;36.10;99492.80;220212;1276;25543;-72
2022/07/18 12:30:19;;;;;;;3.10;2.40;;;;;;;26.10;36.06;99490.42;220274;1276;22703;-73
2022/07/18 12:35:35;;;;;;;2.10;1.50;;;;;;;26.16;35.76;99493.23;220085;1276;22628;-73
2022/07/18 12:40:57;;;;;;;1.50;1.40;;;;;;;26.15;35.42;99481.38;220074;1276;22670;-73
2022/07/18 12:46:10;;;;;;;1.60;1.30;;;;;;;26.19;35.59;99480.45;220219;1276;24242;-72
2022/07/18 12:51:15;;;;;;;2.00;1.30;;;;;;;26.30;35.81;99476.02;220131;1276;24221;-72
2022/07/18 12:56:52;;;;;;;3.50;1.50;;;;;;;26.26;35.35;99462.73;216311;1276;5385138;-71
2022/07/18 13:02:19;;;;;;;1.40;1.30;;;;;;;26.31;35.81;99462.52;220182;1276;22750;-73
2022/07/18 13:07:22;;;;;;;2.00;1.40;;;;;;;26.39;35.66;99461.03;220111;1276;22569;-71
2022/07/18 13:12:41;;;;;;;2.50;1.40;;;;;;;26.43;35.52;99454.88;220172;1276;23075;-71
2022/07/18 13:18:06;;;;;;;1.30;1.20;;;;;;;26.63;35.74;99455.90;220000;1276;22727;-72
2022/07/18 13:23:21;;;;;;;2.60;1.30;;;;;;;26.65;35.30;99450.82;219895;1276;26381;-74
2022/07/18 13:29:16;;;;;;;2.70;1.90;;;;;;;26.69;35.12;99446.09;220180;1276;22563;-73
2022/07/18 13:34:20;;;;;;;1.60;1.40;;;;;;;26.68;34.92;99438.44;220390;1276;25179;-72
2022/07/18 13:39:22;;;;;;;2.30;1.60;;;;;;;26.64;35.09;99431.50;219808;1277;22579;-69
2022/07/18 13:44:45;;;;;;;5.20;2.80;;;;;;;26.71;34.95;99434.02;220092;1276;22590;-68
2022/07/18 13:49:49;;;;;;;2.30;1.50;;;;;;;26.80;34.85;99432.74;220271;1276;22560;-69
2022/07/18 13:54:54;;;;;;;1.70;1.60;;;;;;;27.01;34.78;99429.43;220128;1276;22632;-71
2022/07/18 13:59:56;;;;;;;2.20;1.90;;;;;;;27.08;33.80;99430.23;220402;1276;22625;-69
2022/07/18 14:04:58;;;;;;;2.40;1.40;;;;;;;27.03;33.39;99427.70;220061;1276;22643;-70
2022/07/18 14:10:14;;;;;;;2.00;1.50;;;;;;;26.96;33.56;99419.57;219906;1276;25306;-69
2022/07/18 14:15:17;;;;;;;1.90;1.60;;;;;;;26.99;33.68;99416.36;220096;1276;22826;-71
2022/07/18 14:20:21;;;;;;;2.20;1.70;;;;;;;26.99;33.55;99417.70;219786;1276;25258;-70
2022/07/18 14:25:24;;;;;;;2.20;1.60;;;;;;;26.98;33.78;99412.13;220177;1276;22567;-70
2022/07/18 14:30:26;;;;;;;2.20;2.00;;;;;;;27.01;33.93;99412.61;220161;1276;23310;-69
2022/07/18 14:35:29;;;;;;;2.00;1.80;;;;;;;27.04;33.66;99409.73;220021;1276;23300;-69
2022/07/18 14:40:31;;;;;;;1.90;1.60;;;;;;;27.07;33.80;99406.36;220241;1276;25326;-70
2022/07/18 14:45:33;;;;;;;2.90;2.60;;;;;;;27.27;33.72;99403.23;220095;1276;24240;-68
2022/07/18 14:50:53;;;;;;;3.00;1.80;;;;;;;27.35;33.34;99402.98;220173;1276;25257;-68
2022/07/18 14:55:56;;;;;;;3.20;1.60;;;;;;;27.38;33.16;99398.60;219900;1276;24345;-69
2022/07/18 15:00:58;;;;;;;3.10;1.90;;;;;;;27.39;32.96;99399.23;220115;1276;24325;-69
2022/07/18 15:06:01;;;;;;;2.30;1.50;;;;;;;27.34;32.90;99393.38;220149;1276;22530;-69
2022/07/18 15:11:10;;;;;;;1.70;1.30;;;;;;;27.38;33.07;99389.63;220082;1276;23549;-69
2022/07/18 15:16:12;;;;;;;;;;;;;;;27.38;32.97;99387.20;219774;1276;24117;-70
2022/07/18 15:21:15;;;;;;;1.50;1.40;;;;;;;27.28;32.61;99383.20;220082;1276;22551;-71
2022/07/18 15:26:17;;;;;;;2.50;2.30;;;;;;;27.24;32.76;99382.55;220204;1276;24161;-70
2022/07/18 15:31:20;;;;;;;2.40;1.60;;;;;;;27.21;32.50;99379.72;220178;1276;26548;-70
2022/07/18 15:36:25;;;;;;;1.90;1.40;;;;;;;27.15;32.43;99381.58;220019;1276;25255;-69
2022/07/18 15:41:27;;;;;;;2.50;1.50;;;;;;;27.14;32.66;99378.19;219910;1276;22538;-69
2022/07/18 15:46:30;;;;;;;1.70;1.30;;;;;;;27.17;32.65;99378.68;219896;1276;26384;-69
2022/07/18 15:51:32;;;;;;;1.30;1.20;;;;;;;27.15;32.67;99373.95;220026;1276;24231;-69
2022/07/18 15:56:35;;;;;;;1.70;1.60;;;;;;;27.07;32.59;99369.35;220015;1276;26613;-70
2022/07/18 16:01:37;;;;;;;1.90;1.40;;;;;;;27.02;32.62;99364.92;219845;1276;23825;-71
2022/07/18 16:06:40;;;;;;;1.70;1.60;;;;;;;26.94;32.75;99359.48;220048;1276;25380;-70
2022/07/18 16:11:43;;;;;;;2.10;1.60;;;;;;;26.87;32.83;99358.42;220020;1276;22627;-68
2022/07/18 16:16:45;;;;;;;1.40;1.30;;;;;;;26.87;33.12;99350.65;220224;1276;22541;-70
2022/07/18 16:21:48;;;;;;;10.00;9.00;;;;;;;26.83;32.99;99346.70;220099;1276;23187;-69
2022/07/18 16:26:53;;;;;;;3.90;2.10;;;;;;;26.72;33.24;99346.95;219873;1276;23506;-70
2022/07/18 16:31:56;;;;;;;5.60;1.80;;;;;;;26.62;33.36;99339.40;220123;1277;23209;-69
2022/07/18 16:37:05;;;;;;;2.10;1.70;;;;;;;26.56;33.52;99338.51;219946;1276;24385;-69
2022/07/18 16:42:28;;;;;;;;;;;;;;;26.52;33.51;99334.33;220165;1276;24322;-70
2022/07/18 16:47:34;;;;;;;5.80;1.70;;;;;;;26.46;33.49;99329.81;220009;1277;22627;-68
2022/07/18 16:52:40;;;;;;;2.20;1.50;;;;;;;26.40;33.56;99321.45;220135;1277;22552;-68
2022/07/18 16:57:42;;;;;;;9.70;8.70;;;;;;;26.30;34.04;99320.36;220230;1276;22592;-70
2022/07/18 17:02:49;;;;;;;4.00;3.30;;;;;;;26.23;34.21;99317.17;220152;1276;25640;-69
2022/07/18 17:07:52;;;;;;;2.70;1.90;;;;;;;26.20;34.33;99319.67;219776;1276;22578;-69
2022/07/18 17:12:55;;;;;;;2.70;1.70;;;;;;;26.20;34.78;99312.13;219921;1276;23076;-69
2022/07/18 17:17:58;;;;;;;6.70;2.30;;;;;;;26.20;35.14;99314.33;220019;1276;23045;-69
2022/07/18 17:23:04;;;;;;;3.00;1.90;;;;;;;26.57;35.33;99310.09;219924;1276;22535;-71
2022/07/18 17:28:07;;;;;;;2.70;1.90;;;;;;;27.77;35.20;99310.93;220224;1276;24152;-70
2022/07/18 17:33:10;;;;;;;5.00;3.40;;;;;;;29.08;34.46;99308.24;220183;1276;22569;-67
2022/07/18 17:38:33;;;;;;;3.50;2.90;;;;;;;30.31;33.71;99309.31;220031;1276;24230;-70
2022/07/18 17:43:43;;;;;;;2.10;1.90;;;;;;;31.52;32.65;99310.55;220171;1276;22538;-71
2022/07/18 17:48:45;;;;;;;2.90;2.20;;;;;;;31.31;30.72;99311.14;220289;1277;22548;-68
2022/07/18 17:53:48;;;;;;;3.20;2.10;;;;;;;30.30;31.00;99311.71;219905;1276;22674;-70
2022/07/18 17:58:57;;;;;;;2.40;1.80;;;;;;;29.25;31.55;99315.97;219921;1276;22572;-70
2022/07/18 18:04:00;;;;;;;3.20;1.80;;;;;;;28.33;32.00;99314.59;220044;1276;22624;-69
2022/07/18 18:09:04;;;;;;;4.90;2.00;;;;;;;27.56;32.91;99313.59;219970;1276;22628;-68
2022/07/18 18:14:17;;;;;;;6.10;2.20;;;;;;;26.91;33.77;99308.19;220073;1278;24133;-70
2022/07/18 18:19:20;;;;;;;3.80;2.40;;;;;;;26.37;34.57;99305.50;220170;1277;23847;-69
2022/07/18 18:24:23;;;;;;;3.50;2.20;;;;;;;25.94;35.32;99310.17;220253;1276;24239;-69
2022/07/18 18:29:26;;;;;;;4.30;2.40;;;;;;;25.53;35.98;99307.12;220380;1276;22589;-69
2022/07/18 18:34:28;;;;;;;3.40;2.20;;;;;;;25.09;36.60;99310.06;220185;1276;24272;-70
2022/07/18 18:39:35;;;;;;;4.60;2.90;;;;;;;24.66;37.26;99310.20;219987;1276;24324;-70
2022/07/18 18:44:39;;;;;;;3.50;2.90;;;;;;;24.22;37.87;99312.12;219877;1277;22566;-69
2022/07/18 18:49:42;;;;;;;3.20;2.50;;;;;;;23.83;38.55;99311.33;220249;1276;24211;-69
2022/07/18 18:54:45;;;;;;;4.50;3.00;;;;;;;23.44;39.24;99312.31;219935;1277;24254;-70
2022/07/18 18:59:47;;;;;;;4.30;2.60;;;;;;;23.06;40.25;99318.14;220046;1276;26452;-69
2022/07/18 19:04:49;;;;;;;5.60;2.50;;;;;;;22.69;40.91;99315.38;220173;1277;22542;-70
2022/07/18 19:09:54;;;;;;;4.10;2.50;;;;;;;22.31;41.82;99318.27;220180;1276;25332;-69
2022/07/18 19:15:07;;;;;;;5.90;2.60;;;;;;;21.96;42.77;99320.06;220173;1276;22725;-69
2022/07/18 19:20:10;;;;;;;4.70;2.20;;;;;;;21.63;43.43;99326.53;220284;1277;25376;-70
2022/07/18 19:25:13;;;;;;;4.10;2.80;;;;;;;21.30;44.04;99330.06;220202;1276;22604;-70
2022/07/18 19:30:16;;;;;;;3.90;2.70;;;;;;;21.01;44.69;99328.14;220066;1279;24283;-69
2022/07/18 19:35:19;;;;;;;4.00;2.40;;;;;;;20.73;45.32;99329.29;220261;1276;22645;-70
2022/07/18 19:40:22;;;;;;;3.60;2.40;;;;;;;20.49;45.83;99328.98;220191;1276;22568;-70
2022/07/18 19:45:25;;;;;;;4.70;2.60;;;;;;;20.28;46.18;99329.48;220143;1277;22590;-73
2022/07/18 19:50:27;;;;;;;6.30;3.50;;;;;;;20.10;46.83;99330.84;220223;1276;27193;-68
2022/07/18 19:55:30;;;;;;;5.60;3.10;;;;;;;19.91;47.61;99322.70;220087;1276;23089;-68
2022/07/18 20:00:32;;;;;;;5.00;2.90;;;;;;;19.73;47.94;99320.91;219959;1276;22547;-70
2022/07/18 20:05:35;;;;;;;4.30;2.50;;;;;;;19.57;48.52;99322.67;220055;1276;22570;-69
2022/07/18 20:10:39;;;;;;;4.90;2.80;;;;;;;19.40;49.71;99334.45;220197;1277;24341;-72
2022/07/18 20:15:42;;;;;;;3.10;2.70;;;;;;;19.21;50.46;99338.43;219940;1277;22572;-69
2022/07/18 20:20:51;;;;;;;5.60;2.90;;;;;;;19.03;50.85;99337.14;220138;1276;22573;-72
2022/07/18 20:25:53;;;;;;;4.90;3.00;;;;;;;18.87;51.31;99338.77;220200;1277;23352;-69
2022/07/18 20:36:42;;;;;;;10.50;7.80;;;;;;;18.58;52.31;99330.58;220145;1278;22772;-68
2022/07/18 20:41:44;;;;;;;6.90;5.10;;;;;;;18.45;52.76;99328.55;220167;1276;24164;-68
2022/07/18 20:46:47;;;;;;;5.50;4.30;;;;;;;18.33;53.11;99329.79;219961;1277;22645;-67
2022/07/18 20:51:49;;;;;;;5.90;4.00;;;;;;;18.22;53.68;99329.20;219918;1277;25511;-68
2022/07/18 20:56:53;;;;;;;5.60;3.60;;;;;;;18.13;54.19;99325.41;220149;1276;25336;-69
2022/07/18 21:01:59;;;;;;;5.60;4.30;;;;;;;18.03;54.52;99322.29;220050;1278;24190;-68
2022/07/18 21:07:15;;;;;;;6.70;4.10;;;;;;;17.94;54.79;99327.19;219991;1277;22676;-70
2022/07/18 21:12:21;;;;;;;5.40;3.50;;;;;;;17.85;55.31;99328.11;220149;1276;22615;-69
2022/07/18 21:17:24;;;;;;;6.10;4.20;;;;;;;17.77;55.58;99326.33;220129;1277;25408;-69
2022/07/18 21:22:27;;;;;;;6.80;4.00;;;;;;;17.67;55.78;99321.26;220044;1278;24269;-69
2022/07/18 21:27:30;;;;;;;7.00;3.90;;;;;;;17.57;56.53;99313.59;220132;1277;25342;-69
2022/07/18 21:32:34;;;;;;;4.90;3.70;;;;;;;17.49;57.15;99311.66;220105;1277;22543;-70
2022/07/18 21:37:36;;;;;;;4.80;3.60;;;;;;;17.39;57.53;99306.98;220218;1278;23204;-68
2022/07/18 21:42:44;;;;;;;5.20;4.00;;;;;;;17.29;57.85;99309.19;220111;1278;23280;-69
2022/07/18 21:47:47;;;;;;;5.80;3.70;;;;;;;17.19;58.21;99310.28;220077;1278;25381;-68
2022/07/18 21:52:49;;;;;;;6.80;4.20;;;;;;;17.07;58.74;99300.80;220018;1280;24309;-68
2022/07/18 21:57:51;;;;;;;5.50;4.30;;;;;;;16.96;59.07;99305.73;220008;1278;25268;-68
2022/07/18 22:02:58;;;;;;;5.50;4.20;;;;;;;16.85;59.47;99305.61;220123;1278;22597;-70
2022/07/18 22:08:01;;;;;;;7.00;4.70;;;;;;;16.75;59.87;99310.23;219841;1280;26391;-69
2022/07/18 22:13:04;;;;;;;7.80;4.90;;;;;;;16.67;60.18;99303.60;220129;1277;22589;-69
2022/07/18 22:18:26;;;;;;;8.00;4.30;;;;;;;16.60;60.75;99296.40;220254;1278;26199;-67
2022/07/18 22:23:38;;;;;;;7.50;5.00;;;;;;;16.54;61.13;99295.91;220090;1278;23809;-69
2022/07/18 22:28:40;;;;;;;5.60;4.40;;;;;;;16.50;61.40;99290.23;220203;1278;25305;-69
2022/07/18 22:34:07;;;;;;;7.40;5.00;;;;;;;16.48;61.73;99290.14;220162;1279;25444;-68
2022/07/18 22:39:19;;;;;;;9.00;4.80;;;;;;;16.47;62.10;99292.39;220265;1277;22580;-68
2022/07/18 22:44:22;;;;;;;8.10;5.50;;;;;;;16.47;62.41;99293.47;220022;1277;25397;-70
2022/07/18 22:49:24;;;;;;;9.00;5.10;;;;;;;16.48;62.55;99293.61;220191;1277;26404;-69
2022/07/18 22:54:36;;;;;;;6.60;5.10;;;;;;;16.49;62.56;99295.23;219975;1278;25389;-68
2022/07/18 22:59:43;;;;;;;7.40;4.50;;;;;;;16.52;62.93;99290.02;220240;1277;23336;-68
2022/07/18 23:05:28;;;;;;;7.00;4.80;;;;;;;16.56;62.94;99288.33;220176;1278;24323;-68
2022/07/18 23:10:33;;;;;;;6.10;4.10;;;;;;;16.59;62.98;99283.61;220219;1277;22558;-69
2022/07/18 23:15:38;;;;;;;5.10;4.00;;;;;;;16.63;62.96;99280.52;220270;1277;24271;-69
2022/07/18 23:20:41;;;;;;;6.70;4.50;;;;;;;16.68;63.03;99282.85;220302;1277;22595;-69
2022/07/18 23:25:44;;;;;;;7.10;4.70;;;;;;;16.73;63.14;99273.50;220158;1277;22606;-69
2022/07/18 23:30:47;;;;;;;6.20;4.30;;;;;;;16.78;63.14;99275.52;220096;1277;23041;-68
2022/07/18 23:35:53;;;;;;;7.60;4.10;;;;;;;16.83;63.15;99272.62;220083;1277;23885;-68
2022/07/18 23:41:06;;;;;;;6.40;4.20;;;;;;;16.86;63.10;99269.83;219873;1276;22540;-68
2022/07/18 23:46:18;;;;;;;5.90;4.10;;;;;;;16.88;63.02;99270.25;219870;1277;25260;-68
2022/07/18 23:51:26;;;;;;;6.20;3.90;;;;;;;16.91;63.06;99268.60;220071;1278;22595;-69
2022/07/18 23:56:45;;;;;;;5.80;4.40;;;;;;;16.94;62.95;99268.89;220107;1278;22583;-68
